createdAt,value
2019-01-04T00:00:19.231Z,537.49
2019-01-04T00:01:19.227Z,536.54
2019-01-04T00:02:19.223Z,535.66
2019-01-04T00:03:19.198Z,535.52
2019-01-04T00:04:19.203Z,533.65
2019-01-04T00:05:19.177Z,534.10
2019-01-04T00:06:19.176Z,539.45
2019-01-04T00:07:19.167Z,536.28
2019-01-04T00:08:19.141Z,533.62
2019-01-04T00:09:19.141Z,536.05
2019-01-04T00:10:19.129Z,534.65
2019-01-04T00:11:19.118Z,537.34
2019-01-04T00:12:19.481Z,534.47
2019-01-04T00:13:19.139Z,532.40
2019-01-04T00:14:19.119Z,537.36
2019-01-04T00:15:19.706Z,536.70
2019-01-04T00:16:19.239Z,535.23
2019-01-04T00:17:19.102Z,537.68
2019-01-04T00:18:19.051Z,536.24
2019-01-04T00:19:19.039Z,533.14
2019-01-04T00:20:19.026Z,532.30
2019-01-04T00:21:19.028Z,537.27
2019-01-04T00:22:19.016Z,535.44
2019-01-04T00:23:19.009Z,536.70
2019-01-04T00:24:19.055Z,534.92
2019-01-04T00:25:18.977Z,536.49
2019-01-04T00:26:18.974Z,533.02
2019-01-04T00:27:18.961Z,536.07
2019-01-04T00:28:19.035Z,536.07
2019-01-04T00:29:18.931Z,534.43
2019-01-04T00:30:18.918Z,536.22
2019-01-04T00:31:18.971Z,536.25
2019-01-04T00:32:18.915Z,538.10
2019-01-04T00:33:18.897Z,533.74
2019-01-04T00:34:18.903Z,535.23
2019-01-04T00:35:18.892Z,536.54
2019-01-04T00:36:18.897Z,539.37
2019-01-04T00:37:18.893Z,541.28
2019-01-04T00:38:18.905Z,536.97
2019-01-04T00:39:19.083Z,537.18
2019-01-04T00:40:18.862Z,534.21
2019-01-04T00:41:18.818Z,535.60
2019-01-04T00:42:18.803Z,533.60
2019-01-04T00:43:18.828Z,531.02
2019-01-04T00:44:18.784Z,534.06
2019-01-04T00:45:18.782Z,536.25
2019-01-04T00:46:18.771Z,534.32
2019-01-04T00:47:18.752Z,537.89
2019-01-04T00:48:18.785Z,532.97
2019-01-04T00:49:18.765Z,536.72
2019-01-04T00:50:18.720Z,535.65
2019-01-04T00:51:18.713Z,535.85
2019-01-04T00:52:18.694Z,538.93
2019-01-04T00:53:18.698Z,535.25
2019-01-04T00:54:18.678Z,536.83
2019-01-04T00:55:18.688Z,532.95
2019-01-04T00:56:18.653Z,537.13
2019-01-04T00:57:18.635Z,534.64
2019-01-04T00:58:18.625Z,533.92
2019-01-04T00:59:18.611Z,537.22
2019-01-04T01:00:18.609Z,535.48
2019-01-04T01:01:18.625Z,535.56
2019-01-04T01:02:18.595Z,535.28
2019-01-04T01:03:18.575Z,536.45
2019-01-04T01:04:18.617Z,541.81
2019-01-04T01:05:18.571Z,537.84
2019-01-04T01:06:18.552Z,535.95
2019-01-04T01:07:18.540Z,536.03
2019-01-04T01:08:18.527Z,533.89
2019-01-04T01:09:18.525Z,535.85
2019-01-04T01:10:18.534Z,538.48
2019-01-04T01:11:18.510Z,537.63
2019-01-04T01:12:18.508Z,536.97
2019-01-04T01:13:18.472Z,536.45
2019-01-04T01:14:18.534Z,532.14
2019-01-04T01:15:18.454Z,534.46
2019-01-04T01:16:18.475Z,538.38
2019-01-04T01:17:18.457Z,537.89
2019-01-04T01:18:18.424Z,536.47
2019-01-04T01:19:18.402Z,540.35
2019-01-04T01:20:18.397Z,534.78
2019-01-04T01:21:18.382Z,535.01
2019-01-04T01:22:18.392Z,541.28
2019-01-04T01:23:18.419Z,536.76
2019-01-04T01:24:18.386Z,536.66
2019-01-04T01:25:18.369Z,533.02
2019-01-04T01:26:18.337Z,536.68
2019-01-04T01:27:18.334Z,532.82
2019-01-04T01:28:18.335Z,536.90
2019-01-04T01:29:18.322Z,537.44
2019-01-04T01:30:18.459Z,535.63
2019-01-04T01:31:18.341Z,536.99
2019-01-04T01:32:18.280Z,539.09
2019-01-04T01:33:18.442Z,534.04
2019-01-04T01:34:18.267Z,536.80
2019-01-04T01:35:18.264Z,537.38
2019-01-04T01:36:18.236Z,537.34
2019-01-04T01:37:18.218Z,536.57
2019-01-04T01:38:18.222Z,532.15
2019-01-04T01:39:18.206Z,532.70
2019-01-04T01:40:18.215Z,542.25
2019-01-04T01:41:18.256Z,531.56
2019-01-04T01:42:18.246Z,536.74
2019-01-04T01:43:18.165Z,533.16
2019-01-04T01:44:18.171Z,536.45
2019-01-04T01:45:18.142Z,536.07
2019-01-04T01:46:18.142Z,536.28
2019-01-04T01:47:18.119Z,541.31
2019-01-04T01:48:18.107Z,533.37
2019-01-04T01:49:18.090Z,538.49
2019-01-04T01:50:18.085Z,534.49
2019-01-04T01:51:18.105Z,536.30
2019-01-04T01:52:18.092Z,539.42
2019-01-04T01:53:18.059Z,538.46
2019-01-04T01:54:18.045Z,537.96
2019-01-04T01:55:18.045Z,536.78
2019-01-04T01:56:18.019Z,536.68
2019-01-04T01:57:18.015Z,535.78
2019-01-04T01:58:18.023Z,534.65
2019-01-04T01:59:17.987Z,536.55
2019-01-04T02:00:17.983Z,538.19
2019-01-04T02:01:17.963Z,535.97
2019-01-04T02:02:17.958Z,535.90
2019-01-04T02:03:17.962Z,538.35
2019-01-04T02:04:17.941Z,541.36
2019-01-04T02:05:17.926Z,536.31
2019-01-04T02:06:17.909Z,537.85
2019-01-04T02:07:17.907Z,536.07
2019-01-04T02:08:17.886Z,533.54
2019-01-04T02:09:17.878Z,535.79
2019-01-04T02:10:17.863Z,537.97
2019-01-04T02:11:20.116Z,540.71
2019-01-04T02:12:17.837Z,536.75
2019-01-04T02:13:17.830Z,536.93
2019-01-04T02:14:17.823Z,536.44
2019-01-04T02:15:17.808Z,532.81
2019-01-04T02:16:17.818Z,536.68
2019-01-04T02:17:17.792Z,534.32
2019-01-04T02:18:17.775Z,536.69
2019-01-04T02:19:17.766Z,534.84
2019-01-04T02:20:17.763Z,537.58
2019-01-04T02:21:17.749Z,534.51
2019-01-04T02:22:17.737Z,538.40
2019-01-04T02:23:17.730Z,533.55
2019-01-04T02:24:17.719Z,538.13
2019-01-04T02:25:17.702Z,532.55
2019-01-04T02:26:17.705Z,537.41
2019-01-04T02:27:17.688Z,538.69
2019-01-04T02:28:17.683Z,538.13
2019-01-04T02:29:17.678Z,534.06
2019-01-04T02:30:17.689Z,536.69
2019-01-04T02:31:17.667Z,537.77
2019-01-04T02:32:17.644Z,535.31
2019-01-04T02:33:17.632Z,539.75
2019-01-04T02:34:17.606Z,537.07
2019-01-04T02:35:17.590Z,534.63
2019-01-04T02:36:17.582Z,533.79
2019-01-04T02:37:17.579Z,539.96
2019-01-04T02:38:17.569Z,539.70
2019-01-04T02:39:17.558Z,535.98
2019-01-04T02:40:17.564Z,533.70
2019-01-04T02:41:17.542Z,537.11
2019-01-04T02:42:17.553Z,537.00
2019-01-04T02:43:17.519Z,534.90
2019-01-04T02:44:17.530Z,539.01
2019-01-04T02:45:17.506Z,535.98
2019-01-04T02:46:17.521Z,537.92
2019-01-04T02:47:17.523Z,536.94
2019-01-04T02:48:17.458Z,538.12
2019-01-04T02:49:17.458Z,536.60
2019-01-04T02:50:17.451Z,537.73
2019-01-04T02:51:17.438Z,534.58
2019-01-04T02:52:17.417Z,538.01
2019-01-04T02:53:17.436Z,534.92
2019-01-04T02:54:17.394Z,536.62
2019-01-04T02:55:17.394Z,537.69
2019-01-04T02:56:17.381Z,534.49
2019-01-04T02:57:17.372Z,538.91
2019-01-04T02:58:17.355Z,537.56
2019-01-04T02:59:17.363Z,534.63
2019-01-04T03:00:17.386Z,536.33
2019-01-04T03:01:17.323Z,537.73
2019-01-04T03:02:17.323Z,537.10
2019-01-04T03:03:17.348Z,533.86
2019-01-04T03:04:17.299Z,533.90
2019-01-04T03:05:17.289Z,539.13
2019-01-04T03:06:17.294Z,535.10
2019-01-04T03:07:17.270Z,537.51
2019-01-04T03:08:17.259Z,537.07
2019-01-04T03:09:17.237Z,533.76
2019-01-04T03:10:17.235Z,537.03
2019-01-04T03:11:17.227Z,536.70
2019-01-04T03:12:17.210Z,538.78
2019-01-04T03:13:17.203Z,534.04
2019-01-04T03:14:17.187Z,533.17
2019-01-04T03:15:17.186Z,533.91
2019-01-04T03:16:17.172Z,534.09
2019-01-04T03:17:17.301Z,534.92
2019-01-04T03:18:17.152Z,532.74
2019-01-04T03:19:17.137Z,533.16
2019-01-04T03:20:17.127Z,533.33
2019-01-04T03:21:17.113Z,537.82
2019-01-04T03:22:17.118Z,532.23
2019-01-04T03:23:17.101Z,536.45
2019-01-04T03:24:17.077Z,536.82
2019-01-04T03:25:17.082Z,534.85
2019-01-04T03:26:17.068Z,534.59
2019-01-04T03:27:17.053Z,534.86
2019-01-04T03:28:17.047Z,534.36
2019-01-04T03:29:17.034Z,534.80
2019-01-04T03:30:17.055Z,538.05
2019-01-04T03:31:17.014Z,536.11
2019-01-04T03:32:17.003Z,533.97
2019-01-04T03:33:16.992Z,540.09
2019-01-04T03:34:16.985Z,534.02
2019-01-04T03:35:16.979Z,536.83
2019-01-04T03:36:16.958Z,534.30
2019-01-04T03:37:17.600Z,535.72
2019-01-04T03:38:16.959Z,536.13
2019-01-04T03:39:16.926Z,534.56
2019-01-04T03:40:16.922Z,534.52
2019-01-04T03:41:16.921Z,534.99
2019-01-04T03:42:16.922Z,534.27
2019-01-04T03:43:16.878Z,536.63
2019-01-04T03:44:16.874Z,538.75
2019-01-04T03:45:16.858Z,536.91
2019-01-04T03:46:16.848Z,539.99
2019-01-04T03:47:16.848Z,533.65
2019-01-04T03:48:16.840Z,537.13
2019-01-04T03:49:16.821Z,540.17
2019-01-04T03:50:16.817Z,536.82
2019-01-04T03:51:16.834Z,542.55
2019-01-04T03:52:16.789Z,533.75
2019-01-04T03:53:16.786Z,536.12
2019-01-04T03:54:16.768Z,535.37
2019-01-04T03:55:16.755Z,537.38
2019-01-04T03:56:16.753Z,537.79
2019-01-04T03:57:16.733Z,536.01
2019-01-04T03:58:16.724Z,535.11
2019-01-04T03:59:16.735Z,533.12
2019-01-04T04:00:16.702Z,535.29
2019-01-04T04:01:16.692Z,536.07
2019-01-04T04:02:16.689Z,536.74
2019-01-04T04:03:16.686Z,537.85
2019-01-04T04:04:16.681Z,530.98
2019-01-04T04:05:16.654Z,535.46
2019-01-04T04:06:16.643Z,536.60
2019-01-04T04:07:16.632Z,535.36
2019-01-04T04:08:16.617Z,533.26
2019-01-04T04:09:16.622Z,534.86
2019-01-04T04:10:16.597Z,532.88
2019-01-04T04:11:16.589Z,533.29
2019-01-04T04:12:16.571Z,539.79
2019-01-04T04:13:16.581Z,534.69
2019-01-04T04:14:16.576Z,536.83
2019-01-04T04:15:16.547Z,533.68
2019-01-04T04:16:16.547Z,537.23
2019-01-04T04:17:16.531Z,538.92
2019-01-04T04:18:16.511Z,535.25
2019-01-04T04:19:16.505Z,536.94
2019-01-04T04:20:16.493Z,537.13
2019-01-04T04:21:16.501Z,536.55
2019-01-04T04:22:16.482Z,532.86
2019-01-04T04:23:16.465Z,534.78
2019-01-04T04:24:16.449Z,534.88
2019-01-04T04:25:16.447Z,535.32
2019-01-04T04:26:16.434Z,534.36
2019-01-04T04:27:16.425Z,534.05
2019-01-04T04:28:16.408Z,535.46
2019-01-04T04:29:16.413Z,532.38
2019-01-04T04:30:16.384Z,534.55
2019-01-04T04:31:16.379Z,537.79
2019-01-04T04:32:16.370Z,533.57
2019-01-04T04:33:16.365Z,535.85
2019-01-04T04:34:16.352Z,535.65
2019-01-04T04:35:16.351Z,536.32
2019-01-04T04:36:16.327Z,536.76
2019-01-04T04:37:16.314Z,534.10
2019-01-04T04:38:16.305Z,532.64
2019-01-04T04:39:16.302Z,534.89
2019-01-04T04:40:16.281Z,532.93
2019-01-04T04:41:16.269Z,538.93
2019-01-04T04:42:16.258Z,537.63
2019-01-04T04:43:16.267Z,531.54
2019-01-04T04:44:16.253Z,534.91
2019-01-04T04:45:16.245Z,534.25
2019-01-04T04:46:16.215Z,535.47
2019-01-04T04:47:16.209Z,536.53
2019-01-04T04:48:16.199Z,534.90
2019-01-04T04:49:16.193Z,532.92
2019-01-04T04:50:16.193Z,533.17
2019-01-04T04:51:16.178Z,534.55
2019-01-04T04:52:16.170Z,535.23
2019-01-04T04:53:16.157Z,535.10
2019-01-04T04:54:16.146Z,532.93
2019-01-04T04:55:16.136Z,533.76
2019-01-04T04:56:16.124Z,535.86
2019-01-04T04:57:16.130Z,539.61
2019-01-04T04:58:16.092Z,534.26
2019-01-04T04:59:16.082Z,539.28
2019-01-04T05:00:16.079Z,536.74
2019-01-04T05:01:16.065Z,530.61
2019-01-04T05:02:16.054Z,536.89
2019-01-04T05:03:16.060Z,534.99
2019-01-04T05:04:16.048Z,534.71
2019-01-04T05:05:16.019Z,533.41
2019-01-04T05:06:16.031Z,537.90
2019-01-04T05:07:16.015Z,536.41
2019-01-04T05:08:15.992Z,541.35
2019-01-04T05:09:16.000Z,536.40
2019-01-04T05:10:15.970Z,535.39
2019-01-04T05:11:15.955Z,537.03
2019-01-04T05:12:15.949Z,536.24
2019-01-04T05:13:15.954Z,531.43
2019-01-04T05:14:15.934Z,532.20
2019-01-04T05:15:15.940Z,534.24
2019-01-04T05:16:15.906Z,538.07
2019-01-04T05:17:15.891Z,536.83
2019-01-04T05:18:15.887Z,535.62
2019-01-04T05:19:15.898Z,538.01
2019-01-04T05:20:15.867Z,540.49
2019-01-04T05:21:15.857Z,535.30
2019-01-04T05:22:15.836Z,531.81
2019-01-04T05:23:15.829Z,530.03
2019-01-04T05:24:15.858Z,534.22
2019-01-04T05:25:15.833Z,532.16
2019-01-04T05:26:15.902Z,535.44
2019-01-04T05:27:15.807Z,533.30
2019-01-04T05:28:15.774Z,533.21
2019-01-04T05:29:15.772Z,533.42
2019-01-04T05:30:15.758Z,534.14
2019-01-04T05:31:15.751Z,532.95
2019-01-04T05:32:15.753Z,530.05
2019-01-04T05:33:15.733Z,534.79
2019-01-04T05:34:15.709Z,527.92
2019-01-04T05:35:15.698Z,530.79
2019-01-04T05:36:15.701Z,533.65
2019-01-04T05:37:15.679Z,532.53
2019-01-04T05:38:15.670Z,527.12
2019-01-04T05:39:15.674Z,530.59
2019-01-04T05:40:15.646Z,531.80
2019-01-04T05:41:15.643Z,526.28
2019-01-04T05:42:15.644Z,527.60
2019-01-04T05:43:15.617Z,530.89
2019-01-04T05:44:15.620Z,531.96
2019-01-04T05:45:15.596Z,529.49
2019-01-04T05:46:15.584Z,527.32
2019-01-04T05:47:15.581Z,526.86
2019-01-04T05:48:15.571Z,530.51
2019-01-04T05:49:15.608Z,530.44
2019-01-04T05:50:15.554Z,532.24
2019-01-04T05:51:15.548Z,534.70
2019-01-04T05:52:15.521Z,527.59
2019-01-04T05:53:15.518Z,532.19
2019-01-04T05:54:15.505Z,524.87
2019-01-04T05:55:15.516Z,523.21
2019-01-04T05:56:15.562Z,530.79
2019-01-04T05:57:15.470Z,531.09
2019-01-04T05:58:15.461Z,531.70
2019-01-04T05:59:15.451Z,527.93
2019-01-04T06:00:15.444Z,530.84
2019-01-04T06:01:15.430Z,528.76
2019-01-04T06:02:15.426Z,531.30
2019-01-04T06:03:15.418Z,531.59
2019-01-04T06:04:15.388Z,533.44
2019-01-04T06:05:15.391Z,530.62
2019-01-04T06:06:15.394Z,532.75
2019-01-04T06:07:15.367Z,528.88
2019-01-04T06:08:15.358Z,533.80
2019-01-04T06:09:15.342Z,522.86
2019-01-04T06:10:15.334Z,530.76
2019-01-04T06:11:15.342Z,529.72
2019-01-04T06:12:15.331Z,527.47
2019-01-04T06:13:15.307Z,532.67
2019-01-04T06:14:15.290Z,532.58
2019-01-04T06:15:15.286Z,535.64
2019-01-04T06:16:15.281Z,529.19
2019-01-04T06:17:15.266Z,528.89
2019-01-04T06:18:15.255Z,528.80
2019-01-04T06:19:15.244Z,534.46
2019-01-04T06:20:15.232Z,529.16
2019-01-04T06:21:15.221Z,533.03
2019-01-04T06:22:15.218Z,531.44
2019-01-04T06:23:15.198Z,535.51
2019-01-04T06:24:15.202Z,537.19
2019-01-04T06:25:15.180Z,533.00
2019-01-04T06:26:15.178Z,533.18
2019-01-04T06:27:15.158Z,531.13
2019-01-04T06:28:15.156Z,532.75
2019-01-04T06:29:15.135Z,535.94
2019-01-04T06:30:15.130Z,529.82
2019-01-04T06:31:15.138Z,532.37
2019-01-04T06:32:15.106Z,527.95
2019-01-04T06:33:15.095Z,527.86
2019-01-04T06:34:15.128Z,533.66
2019-01-04T06:35:15.112Z,534.76
2019-01-04T06:36:15.080Z,535.73
2019-01-04T06:37:15.060Z,530.64
2019-01-04T06:38:15.045Z,537.39
2019-01-04T06:39:15.031Z,533.74
2019-01-04T06:40:15.031Z,535.36
2019-01-04T06:41:15.012Z,537.71
2019-01-04T06:42:15.003Z,531.61
2019-01-04T06:43:14.999Z,537.37
2019-01-04T06:44:14.985Z,536.49
2019-01-04T06:45:14.971Z,536.66
2019-01-04T06:46:14.978Z,538.13
2019-01-04T06:47:14.949Z,534.42
2019-01-04T06:48:14.953Z,535.67
2019-01-04T06:49:14.933Z,534.29
2019-01-04T06:50:14.930Z,532.99
2019-01-04T06:51:14.906Z,530.92
2019-01-04T06:52:14.909Z,535.59
2019-01-04T06:53:14.883Z,533.31
2019-01-04T06:54:14.886Z,533.16
2019-01-04T06:55:14.865Z,534.64
2019-01-04T06:56:14.853Z,531.12
2019-01-04T06:57:14.916Z,533.90
2019-01-04T06:58:14.840Z,533.77
2019-01-04T06:59:14.827Z,534.86
2019-01-04T07:00:14.825Z,532.06
2019-01-04T07:01:14.807Z,531.53
2019-01-04T07:02:14.794Z,532.92
2019-01-04T07:03:14.781Z,531.79
2019-01-04T07:04:14.809Z,531.68
2019-01-04T07:05:14.767Z,534.74
2019-01-04T07:06:14.755Z,530.80
2019-01-04T07:07:14.743Z,532.82
2019-01-04T07:08:14.802Z,533.47
2019-01-04T07:09:14.739Z,533.76
2019-01-04T07:10:14.709Z,530.84
2019-01-04T07:11:14.705Z,534.12
2019-01-04T07:12:14.696Z,537.01
2019-01-04T07:13:14.721Z,540.35
2019-01-04T07:14:14.666Z,534.59
2019-01-04T07:15:14.670Z,532.45
2019-01-04T07:16:14.656Z,529.35
2019-01-04T07:17:14.633Z,535.89
2019-01-04T07:18:14.642Z,535.44
2019-01-04T07:19:14.621Z,532.82
2019-01-04T07:20:14.627Z,532.98
2019-01-04T07:21:14.598Z,535.59
2019-01-04T07:22:14.594Z,534.66
2019-01-04T07:23:14.573Z,537.50
2019-01-04T07:24:14.570Z,537.36
2019-01-04T07:25:14.583Z,536.91
2019-01-04T07:26:14.564Z,536.70
2019-01-04T07:27:14.539Z,531.29
2019-01-04T07:28:14.522Z,536.41
2019-01-04T07:29:14.512Z,536.72
2019-01-04T07:30:14.499Z,536.77
2019-01-04T07:31:14.524Z,535.05
2019-01-04T07:32:14.478Z,535.46
2019-01-04T07:33:14.474Z,538.26
2019-01-04T07:34:14.460Z,536.09
2019-01-04T07:35:14.467Z,539.27
2019-01-04T07:36:14.434Z,536.72
2019-01-04T07:37:14.501Z,534.56
2019-01-04T07:38:14.431Z,532.44
2019-01-04T07:39:14.411Z,538.48
2019-01-04T07:40:14.402Z,532.68
2019-01-04T07:41:14.434Z,535.99
2019-01-04T07:42:14.372Z,534.73
2019-01-04T07:43:16.598Z,538.23
2019-01-04T07:44:14.383Z,540.47
2019-01-04T07:45:14.341Z,538.27
2019-01-04T07:46:14.342Z,538.39
2019-01-04T07:47:14.404Z,536.08
2019-01-04T07:48:14.311Z,534.09
2019-01-04T07:49:14.301Z,534.10
2019-01-04T07:50:14.383Z,535.24
2019-01-04T07:51:14.275Z,535.36
2019-01-04T07:52:14.283Z,530.97
2019-01-04T07:53:14.269Z,537.32
2019-01-04T07:54:14.251Z,536.78
2019-01-04T07:55:14.253Z,532.10
2019-01-04T07:56:15.231Z,534.98
2019-01-04T07:57:14.222Z,534.46
2019-01-04T07:58:14.270Z,536.09
2019-01-04T07:59:14.227Z,536.76
2019-01-04T08:00:14.181Z,535.56
2019-01-04T08:01:14.238Z,535.03
2019-01-04T08:02:14.196Z,531.72
2019-01-04T08:03:14.180Z,534.58
2019-01-04T08:04:14.186Z,533.97
2019-01-04T08:05:14.153Z,533.91
2019-01-04T08:06:14.123Z,536.54
2019-01-04T08:07:14.117Z,531.32
2019-01-04T08:08:14.111Z,531.86
2019-01-04T08:09:14.094Z,533.26
2019-01-04T08:10:14.084Z,533.49
2019-01-04T08:11:14.093Z,536.04
2019-01-04T08:12:14.181Z,538.38
2019-01-04T08:13:14.063Z,533.84
2019-01-04T08:14:14.045Z,533.36
2019-01-04T08:15:14.037Z,532.98
2019-01-04T08:16:14.019Z,535.95
2019-01-04T08:17:14.009Z,537.55
2019-01-04T08:18:14.001Z,536.13
2019-01-04T08:19:14.010Z,533.56
2019-01-04T08:20:13.984Z,529.96
2019-01-04T08:21:13.967Z,532.27
2019-01-04T08:22:13.950Z,533.12
2019-01-04T08:23:14.015Z,536.38
2019-01-04T08:24:13.932Z,535.74
2019-01-04T08:25:13.932Z,539.25
2019-01-04T08:26:13.925Z,536.33
2019-01-04T08:27:13.912Z,532.68
2019-01-04T08:28:13.926Z,538.71
2019-01-04T08:29:13.889Z,532.67
2019-01-04T08:30:13.894Z,538.02
2019-01-04T08:31:13.876Z,536.05
2019-01-04T08:32:13.879Z,533.83
2019-01-04T08:33:13.842Z,539.46
2019-01-04T08:34:13.836Z,536.15
2019-01-04T08:35:13.834Z,536.94
2019-01-04T08:36:13.820Z,540.11
2019-01-04T08:37:13.805Z,538.75
2019-01-04T08:38:13.800Z,534.67
2019-01-04T08:39:13.775Z,536.12
2019-01-04T08:40:13.764Z,536.94
2019-01-04T08:41:13.796Z,536.65
2019-01-04T08:42:13.741Z,536.43
2019-01-04T08:43:13.740Z,538.61
2019-01-04T08:44:13.731Z,541.63
2019-01-04T08:45:13.737Z,530.72
2019-01-04T08:46:13.735Z,540.91
2019-01-04T08:47:13.738Z,540.55
2019-01-04T08:48:13.713Z,545.93
2019-01-04T08:49:13.695Z,540.16
2019-01-04T08:50:13.675Z,540.44
2019-01-04T08:51:13.663Z,539.63
2019-01-04T08:52:13.646Z,537.69
2019-01-04T08:53:13.700Z,539.00
2019-01-04T08:54:13.720Z,536.37
2019-01-04T08:55:13.626Z,539.15
2019-01-04T08:56:13.607Z,535.79
2019-01-04T08:57:13.608Z,544.29
2019-01-04T08:58:13.570Z,539.54
2019-01-04T08:59:13.561Z,533.17
2019-01-04T09:00:13.557Z,538.96
2019-01-04T09:01:13.545Z,537.27
2019-01-04T09:02:13.537Z,539.57
2019-01-04T09:03:13.550Z,538.93
2019-01-04T09:04:13.573Z,536.16
2019-01-04T09:05:13.508Z,537.28
2019-01-04T09:06:13.496Z,545.57
2019-01-04T09:07:13.529Z,542.43
2019-01-04T09:08:13.829Z,541.81
2019-01-04T09:09:14.101Z,536.06
2019-01-04T09:10:13.677Z,542.05
2019-01-04T09:11:13.747Z,541.18
2019-01-04T09:12:14.086Z,545.90
2019-01-04T09:13:13.489Z,537.51
2019-01-04T09:14:13.513Z,543.57
2019-01-04T09:15:13.446Z,537.76
2019-01-04T09:16:13.394Z,536.78
2019-01-04T09:17:13.413Z,539.16
2019-01-04T09:18:13.483Z,540.14
2019-01-04T09:19:13.368Z,540.31
2019-01-04T09:20:13.381Z,545.84
2019-01-04T09:21:13.461Z,539.56
2019-01-04T09:22:13.623Z,537.12
2019-01-04T09:23:13.951Z,544.49
2019-01-04T09:24:13.319Z,545.38
2019-01-04T09:25:13.359Z,543.54
2019-01-04T09:26:13.354Z,541.24
2019-01-04T09:27:13.347Z,542.33
2019-01-04T09:28:18.020Z,542.54
2019-01-04T09:29:13.260Z,544.51
2019-01-04T09:30:13.259Z,544.32
2019-01-04T09:31:13.240Z,543.04
2019-01-04T09:32:13.232Z,541.60
2019-01-04T09:33:13.214Z,540.77
2019-01-04T09:34:13.226Z,542.99
2019-01-04T09:35:13.202Z,541.79
2019-01-04T09:36:13.186Z,541.18
2019-01-04T09:37:13.214Z,545.72
2019-01-04T09:38:13.274Z,538.65
2019-01-04T09:39:13.163Z,538.95
2019-01-04T09:40:13.166Z,537.44
2019-01-04T09:41:13.155Z,542.17
2019-01-04T09:42:13.184Z,540.09
2019-01-04T09:43:13.148Z,538.95
2019-01-04T09:44:13.118Z,545.02
2019-01-04T09:45:13.116Z,542.52
2019-01-04T09:46:13.077Z,539.22
2019-01-04T09:47:13.087Z,541.65
2019-01-04T09:48:13.076Z,543.57
2019-01-04T09:49:13.072Z,542.65
2019-01-04T09:50:13.146Z,540.41
2019-01-04T09:51:13.035Z,542.38
2019-01-04T09:52:13.031Z,538.09
2019-01-04T09:53:13.015Z,540.96
2019-01-04T09:54:12.990Z,538.82
2019-01-04T09:55:13.013Z,540.31
2019-01-04T09:56:13.031Z,540.70
2019-01-04T09:57:13.063Z,537.73
2019-01-04T09:58:12.995Z,537.62
2019-01-04T09:59:12.970Z,542.78
2019-01-04T10:00:12.940Z,542.31
2019-01-04T10:01:12.926Z,541.39
2019-01-04T10:02:12.988Z,539.30
2019-01-04T10:03:12.916Z,538.72
2019-01-04T10:04:12.893Z,543.49
2019-01-04T10:05:12.894Z,537.19
2019-01-04T10:06:12.903Z,538.76
2019-01-04T10:07:12.906Z,542.11
2019-01-04T10:08:12.857Z,537.68
2019-01-04T10:09:12.842Z,540.72
2019-01-04T10:10:12.837Z,537.04
2019-01-04T10:11:12.831Z,539.34
2019-01-04T10:12:12.811Z,540.56
2019-01-04T10:13:12.822Z,541.69
2019-01-04T10:14:12.798Z,539.16
2019-01-04T10:15:12.779Z,538.48
2019-01-04T10:16:13.738Z,541.58
2019-01-04T10:17:12.781Z,538.28
2019-01-04T10:18:12.814Z,539.37
2019-01-04T10:19:12.771Z,539.83
2019-01-04T10:20:12.734Z,541.56
2019-01-04T10:21:12.715Z,544.19
2019-01-04T10:22:12.705Z,541.02
2019-01-04T10:23:12.726Z,540.71
2019-01-04T10:24:12.879Z,539.90
2019-01-04T10:25:12.669Z,540.76
2019-01-04T10:26:12.664Z,537.17
2019-01-04T10:27:12.693Z,542.13
2019-01-04T10:28:12.739Z,538.25
2019-01-04T10:29:12.657Z,542.84
2019-01-04T10:30:12.624Z,538.15
2019-01-04T10:31:12.783Z,538.58
2019-01-04T10:32:12.595Z,541.15
2019-01-04T10:33:12.619Z,538.16
2019-01-04T10:34:12.597Z,542.11
2019-01-04T10:35:12.580Z,538.30
2019-01-04T10:36:12.567Z,539.57
2019-01-04T10:37:12.631Z,541.90
2019-01-04T10:38:12.614Z,538.63
2019-01-04T10:39:12.604Z,540.20
2019-01-04T10:40:12.514Z,544.91
2019-01-04T10:41:12.517Z,542.28
2019-01-04T10:42:12.524Z,538.62
2019-01-04T10:43:12.510Z,541.19
2019-01-04T10:44:12.530Z,540.80
2019-01-04T10:45:12.493Z,541.79
2019-01-04T10:46:12.720Z,541.75
2019-01-04T10:47:12.551Z,539.38
2019-01-04T10:48:12.717Z,540.71
2019-01-04T10:49:12.425Z,540.09
2019-01-04T10:50:12.534Z,540.19
2019-01-04T10:51:12.438Z,536.78
2019-01-04T10:52:13.334Z,540.19
2019-01-04T10:53:12.396Z,543.60
2019-01-04T10:54:12.407Z,540.62
2019-01-04T10:55:12.353Z,542.40
2019-01-04T10:56:12.421Z,538.62
2019-01-04T10:57:12.353Z,543.43
2019-01-04T10:58:12.327Z,538.50
2019-01-04T10:59:12.336Z,542.17
2019-01-04T11:00:12.406Z,538.30
2019-01-04T11:01:12.300Z,542.93
2019-01-04T11:02:12.277Z,539.95
2019-01-04T11:03:12.303Z,540.31
2019-01-04T11:04:12.271Z,544.17
2019-01-04T11:05:12.263Z,541.39
2019-01-04T11:06:12.258Z,543.18
2019-01-04T11:07:12.230Z,543.10
2019-01-04T11:08:12.248Z,536.88
2019-01-04T11:09:12.231Z,538.08
2019-01-04T11:10:12.262Z,539.97
2019-01-04T11:11:12.229Z,541.84
2019-01-04T11:12:12.183Z,538.15
2019-01-04T11:13:12.180Z,539.59
2019-01-04T11:14:12.179Z,547.35
2019-01-04T11:15:12.162Z,542.30
2019-01-04T11:16:12.154Z,539.12
2019-01-04T11:17:12.162Z,538.33
2019-01-04T11:18:12.174Z,538.88
2019-01-04T11:19:12.105Z,541.62
2019-01-04T11:20:12.102Z,544.03
2019-01-04T11:21:12.082Z,540.69
2019-01-04T11:22:12.075Z,542.19
2019-01-04T11:23:12.073Z,540.52
2019-01-04T11:24:12.037Z,543.07
2019-01-04T11:25:12.036Z,543.44
2019-01-04T11:26:12.042Z,543.09
2019-01-04T11:27:12.024Z,540.45
2019-01-04T11:28:12.053Z,543.39
2019-01-04T11:29:11.991Z,541.91
2019-01-04T11:30:11.982Z,539.82
2019-01-04T11:31:12.800Z,545.81
2019-01-04T11:32:12.045Z,540.58
2019-01-04T11:33:11.955Z,540.31
2019-01-04T11:34:11.988Z,541.96
2019-01-04T11:35:11.931Z,540.81
2019-01-04T11:36:11.969Z,539.60
2019-01-04T11:37:11.906Z,540.99
2019-01-04T11:38:11.898Z,540.00
2019-01-04T11:39:11.902Z,539.97
2019-01-04T11:40:11.889Z,538.92
2019-01-04T11:41:11.893Z,541.65
2019-01-04T11:42:11.872Z,540.19
2019-01-04T11:43:11.857Z,545.08
2019-01-04T11:44:11.879Z,539.85
2019-01-04T11:45:11.838Z,540.56
2019-01-04T11:46:11.835Z,541.27
2019-01-04T11:47:11.837Z,541.44
2019-01-04T11:48:11.805Z,540.43
2019-01-04T11:49:11.812Z,539.21
2019-01-04T11:50:11.775Z,541.26
2019-01-04T11:51:11.767Z,540.54
2019-01-04T11:52:11.770Z,542.84
2019-01-04T11:53:11.756Z,541.86
2019-01-04T11:54:11.733Z,538.76
2019-01-04T11:55:11.718Z,541.66
2019-01-04T11:56:11.804Z,545.55
2019-01-04T11:57:11.728Z,538.50
2019-01-04T11:58:11.754Z,542.35
2019-01-04T11:59:11.697Z,541.78
2019-01-04T12:00:11.686Z,543.33
2019-01-04T12:01:11.664Z,540.46
2019-01-04T12:02:11.668Z,539.66
2019-01-04T12:03:11.663Z,542.14
2019-01-04T12:04:11.627Z,540.95
2019-01-04T12:05:11.656Z,539.93
2019-01-04T12:06:11.608Z,541.63
2019-01-04T12:07:11.590Z,538.76
2019-01-04T12:08:11.601Z,542.14
2019-01-04T12:09:11.569Z,539.51
2019-01-04T12:10:12.410Z,539.23
2019-01-04T12:11:11.579Z,540.88
2019-01-04T12:12:11.542Z,542.59
2019-01-04T12:13:11.546Z,540.47
2019-01-04T12:14:11.535Z,539.12
2019-01-04T12:15:11.510Z,541.26
2019-01-04T12:16:11.534Z,539.64
2019-01-04T12:17:11.516Z,537.14
2019-01-04T12:18:11.482Z,539.49
2019-01-04T12:19:11.557Z,539.98
2019-01-04T12:20:11.479Z,541.16
2019-01-04T12:21:11.466Z,539.18
2019-01-04T12:22:11.444Z,538.54
2019-01-04T12:23:11.515Z,541.75
2019-01-04T12:24:11.413Z,538.87
2019-01-04T12:25:11.416Z,542.18
2019-01-04T12:26:11.435Z,537.92
2019-01-04T12:27:11.419Z,535.90
2019-01-04T12:28:11.392Z,539.40